sensor_id;sensor_type;location;lat;lon;timestamp;temperature;humidity
4637;DHT22;2331;48.806;9.140;2024-01-15T00:01:00;0.90;1.00
4637;DHT22;2331;48.806;9.140;2024-01-15T00:03:27;0.90;1.00
4637;DHT22;2331;48.806;9.140;2024-01-15T00:05:54;0.90;1.00
4637;DHT22;2331;48.806;9.140;2024-01-15T00:08:21;0.80;1.00
4637;DHT22;2331;48.806;9.140;2024-01-15T00:10:48;0.90;1.00
4637;DHT22;2331;48.806;9.140;2024-01-15T00:13:15;0.90;1.00
4637;DHT22;2331;48.806;9.140;2024-01-15T00:15:42;0.90;1.00
4637;DHT22;2331;48.806;9.140;2024-01-15T00:18:10;0.80;1.00
4637;DHT22;2331;48.806;9.140;2024-01-15T00:20:37;0.80;1.00
4637;DHT22;2331;48.806;9.140;2024-01-15T00:23:04;0.80;1.00
4637;DHT22;2331;48.806;9.140;2024-01-15T00:25:31;0.80;1.00
4637;DHT22;2331;48.806;9.140;2024-01-15T00:27:57;0.90;1.00
4637;DHT22;2331;48.806;9.140;2024-01-15T00:30:24;1.00;1.00
4637;DHT22;2331;48.806;9.140;2024-01-15T00:32:51;1.00;1.00
4637;DHT22;2331;48.806;9.140;2024-01-15T00:35:19;1.10;1.00
4637;DHT22;2331;48.806;9.140;2024-01-15T00:37:45;1.00;1.00
4637;DHT22;2331;48.806;9.140;2024-01-15T00:40:12;0.90;1.00
4637;DHT22;2331;48.806;9.140;2024-01-15T00:42:39;0.90;1.00
4637;DHT22;2331;48.806;9.140;2024-01-15T00:45:06;1.00;1.00
4637;DHT22;2331;48.806;9.140;2024-01-15T00:47:33;0.80;1.00
4637;DHT22;2331;48.806;9.140;2024-01-15T00:50:00;0.90;1.00
4637;DHT22;2331;48.806;9.140;2024-01-15T00:52:28;1.00;1.00
4637;DHT22;2331;48.806;9.140;2024-01-15T00:54:54;1.10;1.00
4637;DHT22;2331;48.806;9.140;2024-01-15T00:57:21;1.10;1.00
4637;DHT22;2331;48.806;9.140;2024-01-15T00:59:48;1.00;1.00
4637;DHT22;2331;48.806;9.140;2024-01-15T01:02:14;0.90;1.00
4637;DHT22;2331;48.806;9.140;2024-01-15T01:04:41;1.10;1.00
4637;DHT22;2331;48.806;9.140;2024-01-15T01:07:08;0.90;1.00
4637;DHT22;2331;48.806;9.140;2024-01-15T01:09:36;0.80;1.00
4637;DHT22;2331;48.806;9.140;2024-01-15T01:12:03;0.80;1.00
4637;DHT22;2331;48.806;9.140;2024-01-15T01:14:29;0.90;1.00
4637;DHT22;2331;48.806;9.140;2024-01-15T01:16:56;0.80;1.00
4637;DHT22;2331;48.806;9.140;2024-01-15T01:19:23;0.90;1.00
4637;DHT22;2331;48.806;9.140;2024-01-15T01:21:50;0.90;1.00
4637;DHT22;2331;48.806;9.140;2024-01-15T01:24:17;0.90;1.00
4637;DHT22;2331;48.806;9.140;2024-01-15T01:26:45;0.90;1.00
4637;DHT22;2331;48.806;9.140;2024-01-15T01:29:12;1.00;1.00
4637;DHT22;2331;48.806;9.140;2024-01-15T01:31:42;1.10;1.00
4637;DHT22;2331;48.806;9.140;2024-01-15T01:34:09;1.10;1.00
4637;DHT22;2331;48.806;9.140;2024-01-15T01:36:36;1.20;1.00
4637;DHT22;2331;48.806;9.140;2024-01-15T01:39:02;1.20;1.00
4637;DHT22;2331;48.806;9.140;2024-01-15T01:41:29;1.20;1.00
4637;DHT22;2331;48.806;9.140;2024-01-15T01:43:57;1.20;1.00
4637;DHT22;2331;48.806;9.140;2024-01-15T01:46:24;1.20;1.00
4637;DHT22;2331;48.806;9.140;2024-01-15T01:48:52;1.20;1.00
4637;DHT22;2331;48.806;9.140;2024-01-15T01:51:19;1.10;1.00
4637;DHT22;2331;48.806;9.140;2024-01-15T01:53:46;1.20;1.00
4637;DHT22;2331;48.806;9.140;2024-01-15T01:56:13;1.30;1.00
4637;DHT22;2331;48.806;9.140;2024-01-15T01:58:40;1.40;1.00
4637;DHT22;2331;48.806;9.140;2024-01-15T02:01:08;1.50;1.00
4637;DHT22;2331;48.806;9.140;2024-01-15T02:03:35;1.60;1.00
4637;DHT22;2331;48.806;9.140;2024-01-15T02:06:02;1.50;1.00
4637;DHT22;2331;48.806;9.140;2024-01-15T02:08:29;1.50;1.00
4637;DHT22;2331;48.806;9.140;2024-01-15T02:10:56;1.60;1.00
4637;DHT22;2331;48.806;9.140;2024-01-15T02:13:23;1.60;1.00
4637;DHT22;2331;48.806;9.140;2024-01-15T02:15:50;1.50;1.00
4637;DHT22;2331;48.806;9.140;2024-01-15T02:18:18;1.60;1.00
4637;DHT22;2331;48.806;9.140;2024-01-15T02:20:45;1.40;1.00
4637;DHT22;2331;48.806;9.140;2024-01-15T02:23:14;1.50;1.00
4637;DHT22;2331;48.806;9.140;2024-01-15T02:25:43;1.50;1.00
4637;DHT22;2331;48.806;9.140;2024-01-15T02:28:11;1.60;1.00
4637;DHT22;2331;48.806;9.140;2024-01-15T02:30:39;1.60;1.00
4637;DHT22;2331;48.806;9.140;2024-01-15T02:33:06;1.70;1.00
4637;DHT22;2331;48.806;9.140;2024-01-15T02:35:33;1.60;1.00
4637;DHT22;2331;48.806;9.140;2024-01-15T02:38:02;1.70;1.00
4637;DHT22;2331;48.806;9.140;2024-01-15T02:40:30;1.70;1.00
4637;DHT22;2331;48.806;9.140;2024-01-15T02:42:57;1.70;1.00
4637;DHT22;2331;48.806;9.140;2024-01-15T02:45:24;1.60;1.00
4637;DHT22;2331;48.806;9.140;2024-01-15T02:47:51;1.60;1.00
4637;DHT22;2331;48.806;9.140;2024-01-15T02:50:17;1.60;1.00
4637;DHT22;2331;48.806;9.140;2024-01-15T02:52:44;1.70;1.00
4637;DHT22;2331;48.806;9.140;2024-01-15T02:55:11;1.70;1.00
4637;DHT22;2331;48.806;9.140;2024-01-15T02:57:39;1.70;1.00
4637;DHT22;2331;48.806;9.140;2024-01-15T03:00:06;1.70;1.00
4637;DHT22;2331;48.806;9.140;2024-01-15T03:02:37;1.70;1.00
4637;DHT22;2331;48.806;9.140;2024-01-15T03:05:05;1.70;1.00
4637;DHT22;2331;48.806;9.140;2024-01-15T03:07:32;1.70;1.00
4637;DHT22;2331;48.806;9.140;2024-01-15T03:09:58;1.60;1.00
4637;DHT22;2331;48.806;9.140;2024-01-15T03:12:25;1.60;1.00
4637;DHT22;2331;48.806;9.140;2024-01-15T03:14:53;1.70;1.00
4637;DHT22;2331;48.806;9.140;2024-01-15T03:17:20;1.70;1.00
4637;DHT22;2331;48.806;9.140;2024-01-15T03:19:47;1.70;1.00
4637;DHT22;2331;48.806;9.140;2024-01-15T03:22:15;1.70;1.00
4637;DHT22;2331;48.806;9.140;2024-01-15T03:24:41;1.70;1.00
4637;DHT22;2331;48.806;9.140;2024-01-15T03:27:08;1.70;1.00
4637;DHT22;2331;48.806;9.140;2024-01-15T03:29:34;1.70;1.00
4637;DHT22;2331;48.806;9.140;2024-01-15T03:32:02;1.60;1.00
4637;DHT22;2331;48.806;9.140;2024-01-15T03:34:28;1.60;1.00
4637;DHT22;2331;48.806;9.140;2024-01-15T03:36:55;1.60;1.00
4637;DHT22;2331;48.806;9.140;2024-01-15T03:39:22;1.70;1.00
4637;DHT22;2331;48.806;9.140;2024-01-15T03:41:48;1.70;1.00
4637;DHT22;2331;48.806;9.140;2024-01-15T03:44:15;1.70;1.00
4637;DHT22;2331;48.806;9.140;2024-01-15T03:46:42;1.80;1.00
4637;DHT22;2331;48.806;9.140;2024-01-15T03:49:10;1.70;1.00
4637;DHT22;2331;48.806;9.140;2024-01-15T03:51:37;1.70;1.00
4637;DHT22;2331;48.806;9.140;2024-01-15T03:54:03;1.80;1.00
4637;DHT22;2331;48.806;9.140;2024-01-15T03:56:30;1.80;1.00
4637;DHT22;2331;48.806;9.140;2024-01-15T03:58:57;1.90;1.00
4637;DHT22;2331;48.806;9.140;2024-01-15T04:01:24;1.80;1.00
4637;DHT22;2331;48.806;9.140;2024-01-15T04:03:50;1.80;1.00
4637;DHT22;2331;48.806;9.140;2024-01-15T04:06:18;1.70;1.00
4637;DHT22;2331;48.806;9.140;2024-01-15T04:08:45;1.70;1.00
4637;DHT22;2331;48.806;9.140;2024-01-15T04:11:12;1.60;1.00
4637;DHT22;2331;48.806;9.140;2024-01-15T04:13:38;1.50;1.00
4637;DHT22;2331;48.806;9.140;2024-01-15T04:16:05;1.50;1.00
4637;DHT22;2331;48.806;9.140;2024-01-15T04:18:32;1.40;1.00
4637;DHT22;2331;48.806;9.140;2024-01-15T04:20:58;1.50;1.00
4637;DHT22;2331;48.806;9.140;2024-01-15T04:23:26;1.60;1.00
4637;DHT22;2331;48.806;9.140;2024-01-15T04:25:53;1.50;1.00
4637;DHT22;2331;48.806;9.140;2024-01-15T04:28:20;1.50;1.00
4637;DHT22;2331;48.806;9.140;2024-01-15T04:30:46;1.60;1.00
4637;DHT22;2331;48.806;9.140;2024-01-15T04:33:13;1.70;1.00
4637;DHT22;2331;48.806;9.140;2024-01-15T04:35:40;1.80;1.00
4637;DHT22;2331;48.806;9.140;2024-01-15T04:38:06;1.80;1.00
4637;DHT22;2331;48.806;9.140;2024-01-15T04:40:34;1.90;1.00
4637;DHT22;2331;48.806;9.140;2024-01-15T04:43:01;1.80;1.00
4637;DHT22;2331;48.806;9.140;2024-01-15T04:45:28;1.90;1.00
4637;DHT22;2331;48.806;9.140;2024-01-15T04:47:55;1.90;1.00
4637;DHT22;2331;48.806;9.140;2024-01-15T04:50:23;1.80;1.00
4637;DHT22;2331;48.806;9.140;2024-01-15T04:52:50;1.80;1.00
4637;DHT22;2331;48.806;9.140;2024-01-15T04:55:16;1.80;1.00
4637;DHT22;2331;48.806;9.140;2024-01-15T04:57:44;1.80;1.00
4637;DHT22;2331;48.806;9.140;2024-01-15T05:00:12;1.70;1.00
4637;DHT22;2331;48.806;9.140;2024-01-15T05:02:40;1.80;1.00
4637;DHT22;2331;48.806;9.140;2024-01-15T05:05:06;1.80;1.00
4637;DHT22;2331;48.806;9.140;2024-01-15T05:07:33;1.80;1.00
4637;DHT22;2331;48.806;9.140;2024-01-15T05:10:00;1.90;1.00
4637;DHT22;2331;48.806;9.140;2024-01-15T05:12:26;1.90;1.00
4637;DHT22;2331;48.806;9.140;2024-01-15T05:14:54;1.90;1.00
4637;DHT22;2331;48.806;9.140;2024-01-15T05:17:21;2.00;1.00
4637;DHT22;2331;48.806;9.140;2024-01-15T05:19:48;1.90;1.00
4637;DHT22;2331;48.806;9.140;2024-01-15T05:22:14;1.80;1.00
4637;DHT22;2331;48.806;9.140;2024-01-15T05:24:41;1.90;1.00
4637;DHT22;2331;48.806;9.140;2024-01-15T05:27:08;2.00;1.00
4637;DHT22;2331;48.806;9.140;2024-01-15T05:29:35;2.10;1.00
4637;DHT22;2331;48.806;9.140;2024-01-15T05:32:03;1.90;1.00
4637;DHT22;2331;48.806;9.140;2024-01-15T05:34:30;2.00;1.00
4637;DHT22;2331;48.806;9.140;2024-01-15T05:36:57;2.00;1.00
4637;DHT22;2331;48.806;9.140;2024-01-15T05:39:23;2.00;1.00
4637;DHT22;2331;48.806;9.140;2024-01-15T05:41:50;2.10;1.00
4637;DHT22;2331;48.806;9.140;2024-01-15T05:44:17;2.10;1.00
4637;DHT22;2331;48.806;9.140;2024-01-15T05:46:44;2.10;1.00
4637;DHT22;2331;48.806;9.140;2024-01-15T05:49:12;1.90;1.00
4637;DHT22;2331;48.806;9.140;2024-01-15T05:51:39;2.00;1.00
4637;DHT22;2331;48.806;9.140;2024-01-15T05:54:06;2.10;1.00
4637;DHT22;2331;48.806;9.140;2024-01-15T05:56:33;1.90;1.00
4637;DHT22;2331;48.806;9.140;2024-01-15T05:58:59;2.10;1.00
4637;DHT22;2331;48.806;9.140;2024-01-15T06:01:27;2.10;1.00
4637;DHT22;2331;48.806;9.140;2024-01-15T06:03:53;2.10;1.00
4637;DHT22;2331;48.806;9.140;2024-01-15T06:06:21;2.20;1.00
4637;DHT22;2331;48.806;9.140;2024-01-15T06:08:48;2.30;1.00
4637;DHT22;2331;48.806;9.140;2024-01-15T06:11:15;2.30;1.00
4637;DHT22;2331;48.806;9.140;2024-01-15T06:13:41;2.30;1.00
4637;DHT22;2331;48.806;9.140;2024-01-15T06:16:13;2.30;1.00
4637;DHT22;2331;48.806;9.140;2024-01-15T06:18:40;2.30;1.00
4637;DHT22;2331;48.806;9.140;2024-01-15T06:21:07;2.30;1.00
4637;DHT22;2331;48.806;9.140;2024-01-15T06:23:37;2.00;1.00
4637;DHT22;2331;48.806;9.140;2024-01-15T06:26:04;2.10;1.00
4637;DHT22;2331;48.806;9.140;2024-01-15T06:28:31;2.20;1.00
4637;DHT22;2331;48.806;9.140;2024-01-15T06:30:58;2.20;1.00
4637;DHT22;2331;48.806;9.140;2024-01-15T06:33:24;2.30;1.00
4637;DHT22;2331;48.806;9.140;2024-01-15T06:35:51;2.30;1.00
4637;DHT22;2331;48.806;9.140;2024-01-15T06:38:18;2.00;1.00
4637;DHT22;2331;48.806;9.140;2024-01-15T06:40:46;2.00;1.00
4637;DHT22;2331;48.806;9.140;2024-01-15T06:43:14;1.90;1.00
4637;DHT22;2331;48.806;9.140;2024-01-15T06:45:41;2.10;1.00
4637;DHT22;2331;48.806;9.140;2024-01-15T06:48:07;2.20;1.00
4637;DHT22;2331;48.806;9.140;2024-01-15T06:50:34;2.30;1.00
4637;DHT22;2331;48.806;9.140;2024-01-15T06:53:01;2.20;1.00
4637;DHT22;2331;48.806;9.140;2024-01-15T06:55:28;2.00;1.00
4637;DHT22;2331;48.806;9.140;2024-01-15T06:57:56;2.20;1.00
4637;DHT22;2331;48.806;9.140;2024-01-15T07:00:22;2.20;1.00
4637;DHT22;2331;48.806;9.140;2024-01-15T07:02:49;2.20;1.00
4637;DHT22;2331;48.806;9.140;2024-01-15T07:05:16;2.10;1.00
4637;DHT22;2331;48.806;9.140;2024-01-15T07:07:42;2.20;1.00
4637;DHT22;2331;48.806;9.140;2024-01-15T07:10:09;2.30;1.00
4637;DHT22;2331;48.806;9.140;2024-01-15T07:12:36;2.20;1.00
4637;DHT22;2331;48.806;9.140;2024-01-15T07:15:05;2.20;1.00
4637;DHT22;2331;48.806;9.140;2024-01-15T07:17:33;2.20;1.00
4637;DHT22;2331;48.806;9.140;2024-01-15T07:20:00;2.20;1.00
4637;DHT22;2331;48.806;9.140;2024-01-15T07:22:27;2.30;1.00
4637;DHT22;2331;48.806;9.140;2024-01-15T07:24:54;2.50;1.00
4637;DHT22;2331;48.806;9.140;2024-01-15T07:27:20;2.40;1.00
4637;DHT22;2331;48.806;9.140;2024-01-15T07:29:47;2.30;1.00
4637;DHT22;2331;48.806;9.140;2024-01-15T07:32:15;2.40;1.00
4637;DHT22;2331;48.806;9.140;2024-01-15T07:34:42;2.40;1.00
4637;DHT22;2331;48.806;9.140;2024-01-15T07:37:09;2.40;1.00
4637;DHT22;2331;48.806;9.140;2024-01-15T07:39:35;2.40;1.00
4637;DHT22;2331;48.806;9.140;2024-01-15T07:42:02;2.20;1.00
4637;DHT22;2331;48.806;9.140;2024-01-15T07:44:29;2.10;1.00
4637;DHT22;2331;48.806;9.140;2024-01-15T07:46:56;2.10;1.00
4637;DHT22;2331;48.806;9.140;2024-01-15T07:49:24;2.30;1.00
4637;DHT22;2331;48.806;9.140;2024-01-15T07:51:51;2.30;1.00
4637;DHT22;2331;48.806;9.140;2024-01-15T07:54:18;2.30;1.00
4637;DHT22;2331;48.806;9.140;2024-01-15T07:56:54;2.40;1.00
4637;DHT22;2331;48.806;9.140;2024-01-15T07:59:21;2.30;1.00
4637;DHT22;2331;48.806;9.140;2024-01-15T08:01:48;2.50;1.00
4637;DHT22;2331;48.806;9.140;2024-01-15T08:04:15;2.30;1.00
4637;DHT22;2331;48.806;9.140;2024-01-15T08:06:43;2.20;1.00
4637;DHT22;2331;48.806;9.140;2024-01-15T08:09:10;2.20;1.00
4637;DHT22;2331;48.806;9.140;2024-01-15T08:11:39;2.40;1.00
4637;DHT22;2331;48.806;9.140;2024-01-15T08:14:07;2.50;1.00
4637;DHT22;2331;48.806;9.140;2024-01-15T08:16:34;2.50;1.00
4637;DHT22;2331;48.806;9.140;2024-01-15T08:19:00;2.40;1.00
4637;DHT22;2331;48.806;9.140;2024-01-15T08:21:27;2.40;1.00
4637;DHT22;2331;48.806;9.140;2024-01-15T08:23:56;2.40;1.00
4637;DHT22;2331;48.806;9.140;2024-01-15T08:26:23;2.50;1.00
4637;DHT22;2331;48.806;9.140;2024-01-15T08:28:50;2.50;1.00
4637;DHT22;2331;48.806;9.140;2024-01-15T08:31:17;2.70;1.00
4637;DHT22;2331;48.806;9.140;2024-01-15T08:33:44;2.80;1.00
4637;DHT22;2331;48.806;9.140;2024-01-15T08:36:11;2.80;1.00
4637;DHT22;2331;48.806;9.140;2024-01-15T08:38:38;2.70;1.00
4637;DHT22;2331;48.806;9.140;2024-01-15T08:41:06;2.80;1.00
4637;DHT22;2331;48.806;9.140;2024-01-15T08:43:33;2.80;1.00
4637;DHT22;2331;48.806;9.140;2024-01-15T08:46:00;2.90;1.00
4637;DHT22;2331;48.806;9.140;2024-01-15T08:48:28;3.00;1.00
4637;DHT22;2331;48.806;9.140;2024-01-15T08:50:54;2.80;1.00
4637;DHT22;2331;48.806;9.140;2024-01-15T08:53:22;2.60;1.00
4637;DHT22;2331;48.806;9.140;2024-01-15T08:55:49;2.60;1.00
4637;DHT22;2331;48.806;9.140;2024-01-15T08:58:17;2.70;1.00
4637;DHT22;2331;48.806;9.140;2024-01-15T09:00:44;2.70;1.00
4637;DHT22;2331;48.806;9.140;2024-01-15T09:03:11;2.70;1.00
4637;DHT22;2331;48.806;9.140;2024-01-15T09:05:37;2.70;1.00
4637;DHT22;2331;48.806;9.140;2024-01-15T09:08:06;2.80;1.00
4637;DHT22;2331;48.806;9.140;2024-01-15T09:10:32;2.70;1.00
4637;DHT22;2331;48.806;9.140;2024-01-15T09:12:59;2.90;1.00
4637;DHT22;2331;48.806;9.140;2024-01-15T09:15:27;3.00;1.00
4637;DHT22;2331;48.806;9.140;2024-01-15T09:17:54;3.00;1.00
4637;DHT22;2331;48.806;9.140;2024-01-15T09:20:22;3.00;1.00
4637;DHT22;2331;48.806;9.140;2024-01-15T09:22:49;3.10;1.00
4637;DHT22;2331;48.806;9.140;2024-01-15T09:25:16;3.20;1.00
4637;DHT22;2331;48.806;9.140;2024-01-15T09:27:43;3.20;1.00
4637;DHT22;2331;48.806;9.140;2024-01-15T09:30:10;3.20;1.00
4637;DHT22;2331;48.806;9.140;2024-01-15T09:32:38;3.30;1.00
4637;DHT22;2331;48.806;9.140;2024-01-15T09:35:06;3.10;1.00
4637;DHT22;2331;48.806;9.140;2024-01-15T09:37:32;3.20;1.00
4637;DHT22;2331;48.806;9.140;2024-01-15T09:39:59;3.30;1.00
4637;DHT22;2331;48.806;9.140;2024-01-15T09:42:26;3.30;1.00
4637;DHT22;2331;48.806;9.140;2024-01-15T09:44:53;3.20;1.00
4637;DHT22;2331;48.806;9.140;2024-01-15T09:47:20;3.30;1.00
4637;DHT22;2331;48.806;9.140;2024-01-15T09:49:48;3.40;1.00
4637;DHT22;2331;48.806;9.140;2024-01-15T09:52:16;3.20;1.00
4637;DHT22;2331;48.806;9.140;2024-01-15T09:54:46;3.20;1.00
4637;DHT22;2331;48.806;9.140;2024-01-15T09:57:12;3.30;1.00
4637;DHT22;2331;48.806;9.140;2024-01-15T09:59:41;3.40;1.00
4637;DHT22;2331;48.806;9.140;2024-01-15T10:02:09;3.30;1.00
4637;DHT22;2331;48.806;9.140;2024-01-15T10:04:39;3.40;1.00
4637;DHT22;2331;48.806;9.140;2024-01-15T10:07:08;3.30;1.00
4637;DHT22;2331;48.806;9.140;2024-01-15T10:09:35;3.20;1.00
4637;DHT22;2331;48.806;9.140;2024-01-15T10:12:01;3.30;1.00
4637;DHT22;2331;48.806;9.140;2024-01-15T10:14:28;3.40;1.00
4637;DHT22;2331;48.806;9.140;2024-01-15T10:16:56;3.50;1.00
4637;DHT22;2331;48.806;9.140;2024-01-15T10:19:23;3.40;1.00
4637;DHT22;2331;48.806;9.140;2024-01-15T10:21:49;3.60;1.00
4637;DHT22;2331;48.806;9.140;2024-01-15T10:24:17;3.50;1.00
4637;DHT22;2331;48.806;9.140;2024-01-15T10:26:44;3.50;1.00
4637;DHT22;2331;48.806;9.140;2024-01-15T10:29:11;3.50;1.00
4637;DHT22;2331;48.806;9.140;2024-01-15T10:31:38;3.50;1.00
4637;DHT22;2331;48.806;9.140;2024-01-15T10:34:11;3.60;1.00
4637;DHT22;2331;48.806;9.140;2024-01-15T10:36:40;3.60;1.00
4637;DHT22;2331;48.806;9.140;2024-01-15T10:39:07;3.50;1.00
4637;DHT22;2331;48.806;9.140;2024-01-15T10:41:35;3.50;1.00
4637;DHT22;2331;48.806;9.140;2024-01-15T10:44:02;3.60;1.00
4637;DHT22;2331;48.806;9.140;2024-01-15T10:46:29;3.30;1.00
4637;DHT22;2331;48.806;9.140;2024-01-15T10:48:56;3.20;1.00
4637;DHT22;2331;48.806;9.140;2024-01-15T10:51:23;3.30;1.00
4637;DHT22;2331;48.806;9.140;2024-01-15T10:53:53;3.20;1.00
4637;DHT22;2331;48.806;9.140;2024-01-15T10:56:21;3.10;1.00
4637;DHT22;2331;48.806;9.140;2024-01-15T10:58:50;3.30;1.00
4637;DHT22;2331;48.806;9.140;2024-01-15T11:01:17;3.20;1.00
4637;DHT22;2331;48.806;9.140;2024-01-15T11:03:45;3.00;1.00
4637;DHT22;2331;48.806;9.140;2024-01-15T11:06:19;3.20;1.00
4637;DHT22;2331;48.806;9.140;2024-01-15T11:08:47;3.20;1.00
4637;DHT22;2331;48.806;9.140;2024-01-15T11:11:16;3.50;1.00
4637;DHT22;2331;48.806;9.140;2024-01-15T11:13:42;3.60;1.00
4637;DHT22;2331;48.806;9.140;2024-01-15T11:16:12;3.40;1.00
4637;DHT22;2331;48.806;9.140;2024-01-15T11:18:40;3.20;1.00
4637;DHT22;2331;48.806;9.140;2024-01-15T11:21:20;3.10;1.00
4637;DHT22;2331;48.806;9.140;2024-01-15T11:23:49;2.90;1.00
4637;DHT22;2331;48.806;9.140;2024-01-15T11:26:30;3.00;1.00
4637;DHT22;2331;48.806;9.140;2024-01-15T11:28:58;3.20;1.00
4637;DHT22;2331;48.806;9.140;2024-01-15T11:31:56;3.40;1.00
4637;DHT22;2331;48.806;9.140;2024-01-15T11:34:53;3.30;1.00
4637;DHT22;2331;48.806;9.140;2024-01-15T11:37:23;3.30;1.00
4637;DHT22;2331;48.806;9.140;2024-01-15T11:39:52;3.30;1.00
4637;DHT22;2331;48.806;9.140;2024-01-15T11:42:20;3.40;1.00
4637;DHT22;2331;48.806;9.140;2024-01-15T11:44:47;3.30;1.00
4637;DHT22;2331;48.806;9.140;2024-01-15T11:50:40;3.20;1.00
4637;DHT22;2331;48.806;9.140;2024-01-15T11:53:15;3.30;1.00
4637;DHT22;2331;48.806;9.140;2024-01-15T11:55:44;3.10;1.00
4637;DHT22;2331;48.806;9.140;2024-01-15T11:58:14;3.20;1.00
4637;DHT22;2331;48.806;9.140;2024-01-15T12:00:45;3.20;1.00
4637;DHT22;2331;48.806;9.140;2024-01-15T12:03:12;3.20;1.00
4637;DHT22;2331;48.806;9.140;2024-01-15T12:05:40;3.40;1.00
4637;DHT22;2331;48.806;9.140;2024-01-15T12:08:08;3.30;1.00
4637;DHT22;2331;48.806;9.140;2024-01-15T12:10:37;3.00;1.00
4637;DHT22;2331;48.806;9.140;2024-01-15T12:13:10;3.10;1.00
4637;DHT22;2331;48.806;9.140;2024-01-15T12:15:37;2.90;1.00
4637;DHT22;2331;48.806;9.140;2024-01-15T12:18:08;3.10;1.00
4637;DHT22;2331;48.806;9.140;2024-01-15T12:20:35;3.00;1.00
4637;DHT22;2331;48.806;9.140;2024-01-15T12:23:03;3.00;1.00
4637;DHT22;2331;48.806;9.140;2024-01-15T12:25:31;3.00;1.00
4637;DHT22;2331;48.806;9.140;2024-01-15T12:27:59;2.90;1.00
4637;DHT22;2331;48.806;9.140;2024-01-15T12:30:26;3.10;1.00
4637;DHT22;2331;48.806;9.140;2024-01-15T12:32:55;3.30;1.00
4637;DHT22;2331;48.806;9.140;2024-01-15T12:35:23;3.40;1.00
4637;DHT22;2331;48.806;9.140;2024-01-15T12:37:52;3.40;1.00
4637;DHT22;2331;48.806;9.140;2024-01-15T12:40:23;3.20;1.00
4637;DHT22;2331;48.806;9.140;2024-01-15T12:42:50;3.30;1.00
4637;DHT22;2331;48.806;9.140;2024-01-15T12:45:17;3.20;1.00
4637;DHT22;2331;48.806;9.140;2024-01-15T12:47:44;3.20;1.00
4637;DHT22;2331;48.806;9.140;2024-01-15T12:50:12;3.30;1.00
4637;DHT22;2331;48.806;9.140;2024-01-15T12:52:40;3.30;1.00
4637;DHT22;2331;48.806;9.140;2024-01-15T12:55:08;3.30;1.00
4637;DHT22;2331;48.806;9.140;2024-01-15T12:57:37;3.30;1.00
4637;DHT22;2331;48.806;9.140;2024-01-15T13:00:05;3.10;1.00
4637;DHT22;2331;48.806;9.140;2024-01-15T13:02:34;3.20;1.00
4637;DHT22;2331;48.806;9.140;2024-01-15T13:05:02;3.30;1.00
4637;DHT22;2331;48.806;9.140;2024-01-15T13:07:29;3.30;1.00
4637;DHT22;2331;48.806;9.140;2024-01-15T13:09:56;3.30;1.00
4637;DHT22;2331;48.806;9.140;2024-01-15T13:12:23;3.20;1.00
4637;DHT22;2331;48.806;9.140;2024-01-15T13:14:51;3.40;1.00
4637;DHT22;2331;48.806;9.140;2024-01-15T13:17:18;3.00;1.00
4637;DHT22;2331;48.806;9.140;2024-01-15T13:19:46;3.10;1.00
4637;DHT22;2331;48.806;9.140;2024-01-15T13:22:13;3.20;1.00
4637;DHT22;2331;48.806;9.140;2024-01-15T13:24:40;3.30;1.00
4637;DHT22;2331;48.806;9.140;2024-01-15T13:27:06;3.00;1.00
4637;DHT22;2331;48.806;9.140;2024-01-15T13:29:33;3.10;1.00
4637;DHT22;2331;48.806;9.140;2024-01-15T13:32:01;3.20;1.00
4637;DHT22;2331;48.806;9.140;2024-01-15T13:34:28;3.10;1.00
4637;DHT22;2331;48.806;9.140;2024-01-15T13:36:55;3.10;1.00
4637;DHT22;2331;48.806;9.140;2024-01-15T13:39:22;3.00;1.00
4637;DHT22;2331;48.806;9.140;2024-01-15T13:41:49;3.20;1.00
4637;DHT22;2331;48.806;9.140;2024-01-15T13:44:16;3.20;1.00
4637;DHT22;2331;48.806;9.140;2024-01-15T13:46:43;3.20;1.00
4637;DHT22;2331;48.806;9.140;2024-01-15T13:49:11;3.00;1.00
4637;DHT22;2331;48.806;9.140;2024-01-15T13:51:38;3.10;1.00
4637;DHT22;2331;48.806;9.140;2024-01-15T13:54:05;3.10;1.00
4637;DHT22;2331;48.806;9.140;2024-01-15T13:56:33;3.20;1.00
4637;DHT22;2331;48.806;9.140;2024-01-15T13:59:01;3.30;1.00
4637;DHT22;2331;48.806;9.140;2024-01-15T14:01:29;3.30;1.00
4637;DHT22;2331;48.806;9.140;2024-01-15T14:03:56;3.30;1.00
4637;DHT22;2331;48.806;9.140;2024-01-15T14:06:25;3.30;1.00
4637;DHT22;2331;48.806;9.140;2024-01-15T14:08:52;3.10;1.00
4637;DHT22;2331;48.806;9.140;2024-01-15T14:11:18;3.10;1.00
4637;DHT22;2331;48.806;9.140;2024-01-15T14:13:45;3.10;1.00
4637;DHT22;2331;48.806;9.140;2024-01-15T14:16:12;3.20;1.00
4637;DHT22;2331;48.806;9.140;2024-01-15T14:18:39;3.20;1.00
4637;DHT22;2331;48.806;9.140;2024-01-15T14:21:06;3.40;1.00
4637;DHT22;2331;48.806;9.140;2024-01-15T14:23:34;3.30;1.00
4637;DHT22;2331;48.806;9.140;2024-01-15T14:26:00;3.10;1.00
4637;DHT22;2331;48.806;9.140;2024-01-15T14:28:27;3.20;1.00
4637;DHT22;2331;48.806;9.140;2024-01-15T14:30:54;2.80;1.00
4637;DHT22;2331;48.806;9.140;2024-01-15T14:33:23;2.90;1.00
4637;DHT22;2331;48.806;9.140;2024-01-15T14:35:50;2.70;1.00
4637;DHT22;2331;48.806;9.140;2024-01-15T14:38:16;2.80;1.00
4637;DHT22;2331;48.806;9.140;2024-01-15T14:40:45;2.90;1.00
4637;DHT22;2331;48.806;9.140;2024-01-15T14:43:11;3.00;1.00
4637;DHT22;2331;48.806;9.140;2024-01-15T14:45:38;2.80;1.00
4637;DHT22;2331;48.806;9.140;2024-01-15T14:48:05;2.50;1.00
4637;DHT22;2331;48.806;9.140;2024-01-15T14:50:32;2.70;1.00
4637;DHT22;2331;48.806;9.140;2024-01-15T14:52:58;2.40;1.00
4637;DHT22;2331;48.806;9.140;2024-01-15T14:55:25;2.40;1.00
4637;DHT22;2331;48.806;9.140;2024-01-15T14:57:53;2.60;1.00
4637;DHT22;2331;48.806;9.140;2024-01-15T15:00:20;2.70;1.00
4637;DHT22;2331;48.806;9.140;2024-01-15T15:02:47;2.90;1.00
4637;DHT22;2331;48.806;9.140;2024-01-15T15:05:13;2.90;1.00
4637;DHT22;2331;48.806;9.140;2024-01-15T15:07:42;2.90;1.00
4637;DHT22;2331;48.806;9.140;2024-01-15T15:10:09;2.90;1.00
4637;DHT22;2331;48.806;9.140;2024-01-15T15:12:36;2.90;1.00
4637;DHT22;2331;48.806;9.140;2024-01-15T15:15:06;3.00;1.00
4637;DHT22;2331;48.806;9.140;2024-01-15T15:17:33;3.00;1.00
4637;DHT22;2331;48.806;9.140;2024-01-15T15:20:00;3.00;1.00
4637;DHT22;2331;48.806;9.140;2024-01-15T15:22:29;2.90;1.00
4637;DHT22;2331;48.806;9.140;2024-01-15T15:24:55;2.80;1.00
4637;DHT22;2331;48.806;9.140;2024-01-15T15:27:22;3.00;1.00
4637;DHT22;2331;48.806;9.140;2024-01-15T15:29:49;2.80;1.00
4637;DHT22;2331;48.806;9.140;2024-01-15T15:32:17;2.70;1.00
4637;DHT22;2331;48.806;9.140;2024-01-15T15:34:44;2.60;1.00
4637;DHT22;2331;48.806;9.140;2024-01-15T15:37:11;2.50;1.00
4637;DHT22;2331;48.806;9.140;2024-01-15T15:39:41;2.50;1.00
4637;DHT22;2331;48.806;9.140;2024-01-15T15:42:08;2.50;1.00
4637;DHT22;2331;48.806;9.140;2024-01-15T15:44:34;2.60;1.00
4637;DHT22;2331;48.806;9.140;2024-01-15T15:47:02;2.50;1.00
4637;DHT22;2331;48.806;9.140;2024-01-15T15:49:30;2.40;1.00
4637;DHT22;2331;48.806;9.140;2024-01-15T15:51:56;2.30;1.00
4637;DHT22;2331;48.806;9.140;2024-01-15T15:54:26;2.40;1.00
4637;DHT22;2331;48.806;9.140;2024-01-15T15:56:52;2.20;1.00
4637;DHT22;2331;48.806;9.140;2024-01-15T15:59:19;2.50;1.00
4637;DHT22;2331;48.806;9.140;2024-01-15T16:01:48;2.40;1.00
4637;DHT22;2331;48.806;9.140;2024-01-15T16:04:14;2.40;1.00
4637;DHT22;2331;48.806;9.140;2024-01-15T16:06:42;2.40;1.00
4637;DHT22;2331;48.806;9.140;2024-01-15T16:09:12;2.30;1.00
4637;DHT22;2331;48.806;9.140;2024-01-15T16:11:39;2.40;1.00
4637;DHT22;2331;48.806;9.140;2024-01-15T16:14:06;2.40;1.00
4637;DHT22;2331;48.806;9.140;2024-01-15T16:16:32;2.50;1.00
4637;DHT22;2331;48.806;9.140;2024-01-15T16:18:59;2.50;1.00
4637;DHT22;2331;48.806;9.140;2024-01-15T16:21:26;2.30;1.00
4637;DHT22;2331;48.806;9.140;2024-01-15T16:23:54;2.30;1.00
4637;DHT22;2331;48.806;9.140;2024-01-15T16:26:21;2.40;1.00
4637;DHT22;2331;48.806;9.140;2024-01-15T16:28:47;2.40;1.00
4637;DHT22;2331;48.806;9.140;2024-01-15T16:31:14;2.40;1.00
4637;DHT22;2331;48.806;9.140;2024-01-15T16:33:41;2.40;1.00
4637;DHT22;2331;48.806;9.140;2024-01-15T16:36:07;2.50;1.00
4637;DHT22;2331;48.806;9.140;2024-01-15T16:38:34;2.50;1.00